Terminal Aerodrome Forecast
Issued by NWS

Home | Current Version | Previous Version | Text Only | Print | Product List | Glossary On
Versions: 1 2 3 4 5 6 7 8 9 10 11 12 13 14 15 16 17 18 19 20 21
000
FTAK31 PANC 262328
TAFADL
TAF
PADL 262328Z 2700/2724 21008KT 4SM -SNRA BKN004 OVC012
      TEMPO 2702/2705 2SM -SN BR OVC004
     FM270600 23010KT P6SM VCSH SCT004 OVC015
     FM271600 28012KT P6SM FEW015 BKN060=

USA.gov is the U.S. government's official web portal to all federal, state and local government web resources and services.